Time;durP1;ratioP1;P1;durP2;ratioP2;P2;SDS_P1;SDS_P2;PMS_P1;PMS_P2;Temp;Humidity;BMP_temperature;BMP_pressure;BME280_temperature;BME280_humidity;BME280_pressure;Samples;Min_cycle;Max_cycle;Signal;HPM_P1;HPM_P2
2023/09/29 00:00:49;;;;;;;22.42;6.97;;;;;;;-144.73;100.00;54465.16;5053449;28;20020;-74
2023/09/29 00:03:19;;;;;;;21.42;8.23;;;;;;;-144.73;100.00;54440.53;5071946;28;20067;-74
2023/09/29 00:05:49;;;;;;;19.58;7.07;;;;;;;-144.73;100.00;54471.31;5072192;28;20017;-74
2023/09/29 00:08:16;;;;;;;17.55;7.13;;;;;;;-144.73;100.00;54448.75;5053970;28;20028;-74
2023/09/29 00:10:43;;;;;;;15.32;7.60;;;;;;;-144.73;100.00;54475.44;5054176;28;20056;-75
2023/09/29 00:13:08;;;;;;;21.27;7.57;;;;;;;-144.73;100.00;54452.84;5053463;28;20032;-74
2023/09/29 00:15:34;;;;;;;22.95;8.10;;;;;;;-144.73;100.00;54514.44;5071790;28;20455;-73
2023/09/29 00:18:03;;;;;;;15.35;7.80;;;;;;;-144.73;100.00;54461.06;5053573;28;20029;-74
2023/09/29 00:20:29;;;;;;;20.25;7.90;;;;;;;-144.73;100.00;54518.53;5054106;28;20031;-75
2023/09/29 00:22:59;;;;;;;19.90;6.88;;;;;;;-144.73;100.00;54481.59;5051764;28;20033;-74
2023/09/29 00:25:26;;;;;;;16.38;7.93;;;;;;;-144.73;100.00;54444.66;5072776;28;20024;-73
2023/09/29 00:27:53;;;;;;;21.02;7.43;;;;;;;-144.73;100.00;54469.28;5053177;28;20070;-74
2023/09/29 00:30:19;;;;;;;15.80;7.32;;;;;;;-144.73;100.00;54502.13;5071568;28;20048;-74
2023/09/29 00:32:50;;;;;;;20.58;7.70;;;;;;;-144.73;100.00;54467.22;5053094;28;20039;-74
2023/09/29 00:35:24;;;;;;;17.10;8.63;;;;;;;-144.73;100.00;54485.69;5048347;28;20038;-74
2023/09/29 00:37:56;;;;;;;19.10;7.20;;;;;;;-144.73;100.00;54489.81;5053085;28;20029;-75
2023/09/29 00:40:22;;;;;;;15.00;7.20;;;;;;;-144.73;100.00;54465.16;5072004;28;20529;-74
2023/09/29 00:42:48;;;;;;;16.23;6.97;;;;;;;-144.73;100.00;54485.69;5070448;28;20107;-73
2023/09/29 00:45:26;;;;;;;15.60;6.75;;;;;;;-144.73;100.00;54440.53;5054202;28;20012;-73
2023/09/29 00:47:55;;;;;;;18.52;7.07;;;;;;;-144.73;100.00;54450.81;5052803;28;20033;-74
2023/09/29 00:50:23;;;;;;;17.77;7.07;;;;;;;-144.73;100.00;54477.47;5053961;28;20057;-74
2023/09/29 00:52:52;;;;;;;13.85;6.90;;;;;;;-144.73;100.00;54495.97;5052375;28;20043;-73
2023/09/29 00:55:22;;;;;;;18.88;7.65;;;;;;;-144.73;100.00;54469.28;5053334;28;20020;-74
2023/09/29 00:57:50;;;;;;;12.30;6.40;;;;;;;-144.73;100.00;54452.84;5052666;28;20040;-73
2023/09/29 01:00:29;;;;;;;16.23;6.78;;;;;;;-144.73;100.00;54485.69;5065349;28;20040;-73
2023/09/29 01:02:55;;;;;;;15.32;6.88;;;;;;;-144.73;100.00;54428.22;5048782;28;20029;-74
2023/09/29 01:05:21;;;;;;;22.67;7.38;;;;;;;-144.73;100.00;54493.91;5053746;28;20024;-74
2023/09/29 01:07:47;;;;;;;11.85;6.57;;;;;;;-144.73;100.00;54502.13;5070125;28;20032;-74
2023/09/29 01:10:15;;;;;;;23.45;6.95;;;;;;;-144.73;100.00;54473.38;5053549;28;20048;-74
2023/09/29 01:12:40;;;;;;;18.15;6.70;;;;;;;-144.73;100.00;54475.44;5070988;28;20497;-74
2023/09/29 01:15:07;;;;;;;13.30;6.78;;;;;;;-144.73;100.00;54485.69;5052651;28;20028;-74
2023/09/29 01:17:32;;;;;;;22.67;6.75;;;;;;;-144.73;100.00;54518.53;5052832;28;20467;-74
2023/09/29 01:19:58;;;;;;;15.60;6.82;;;;;;;-144.73;100.00;54465.16;5053607;28;20050;-74
2023/09/29 01:22:24;;;;;;;16.52;6.85;;;;;;;-144.73;100.00;54448.75;5053522;28;20113;-72
2023/09/29 01:24:49;;;;;;;19.58;6.50;;;;;;;-144.73;100.00;54477.47;5051858;28;20020;-73
2023/09/29 01:27:14;;;;;;;21.15;7.05;;;;;;;-144.73;100.00;54510.31;5053366;28;20082;-73
2023/09/29 01:29:41;;;;;;;18.70;6.70;;;;;;;-144.73;100.00;54463.13;5052597;28;20074;-73
2023/09/29 01:32:11;;;;;;;17.90;6.65;;;;;;;-144.73;100.00;54506.22;5052964;28;20028;-73
2023/09/29 01:34:37;;;;;;;16.30;7.00;;;;;;;-144.73;100.00;54465.16;5069684;28;20442;-73
2023/09/29 01:37:03;;;;;;;16.05;6.45;;;;;;;-144.73;100.00;54489.81;5052878;28;20060;-74
2023/09/29 01:39:29;;;;;;;18.60;7.20;;;;;;;-144.73;100.00;54481.59;5070184;28;20074;-74
2023/09/29 01:41:55;;;;;;;17.40;6.10;;;;;;;-144.73;100.00;54504.16;5052357;28;20021;-74
2023/09/29 01:44:20;;;;;;;16.65;6.38;;;;;;;-144.73;100.00;54477.47;5052456;28;20039;-73
2023/09/29 01:46:46;;;;;;;16.42;6.50;;;;;;;-144.73;100.00;54479.53;5064719;28;20020;-74
2023/09/29 01:49:12;;;;;;;12.07;5.97;;;;;;;-144.73;100.00;54469.28;5046302;28;20029;-74
2023/09/29 01:51:37;;;;;;;22.50;7.22;;;;;;;-144.73;100.00;54504.16;5052564;28;20028;-73
2023/09/29 01:54:02;;;;;;;17.00;6.55;;;;;;;-144.73;100.00;54479.53;5052162;28;20036;-73
2023/09/29 01:56:31;;;;;;;17.80;6.88;;;;;;;-144.73;100.00;54461.06;5053238;28;20032;-76
2023/09/29 01:58:59;;;;;;;20.45;6.63;;;;;;;-144.73;100.00;54481.59;5051870;28;20048;-73
2023/09/29 02:01:24;;;;;;;18.38;7.70;;;;;;;-144.73;100.00;54498.00;5052496;28;20024;-73
2023/09/29 02:03:52;;;;;;;15.65;6.90;;;;;;;-144.73;100.00;54473.38;5052097;28;20044;-74
2023/09/29 02:06:18;;;;;;;24.13;6.80;;;;;;;-144.73;100.00;54498.00;5068261;28;20069;-74
2023/09/29 02:08:43;;;;;;;19.70;7.18;;;;;;;-144.73;100.00;54489.81;5052128;28;20029;-74
2023/09/29 02:11:09;;;;;;;14.40;6.50;;;;;;;-144.73;100.00;54452.84;5052893;28;20027;-74
2023/09/29 02:13:35;;;;;;;22.20;7.10;;;;;;;-144.73;100.00;54465.16;5052168;28;20524;-74
2023/09/29 02:16:05;;;;;;;15.85;8.07;;;;;;;-144.73;100.00;54487.75;5046730;28;20026;-74
2023/09/29 02:18:31;;;;;;;20.67;7.15;;;;;;;-144.73;100.00;54459.00;5052220;28;20025;-73
2023/09/29 02:20:56;;;;;;;16.05;7.00;;;;;;;-144.73;100.00;54493.91;5069072;28;20020;-74
2023/09/29 02:23:22;;;;;;;13.70;7.25;;;;;;;-144.73;100.00;54493.91;5064352;28;20024;-74
2023/09/29 02:25:48;;;;;;;17.85;7.90;;;;;;;-144.73;100.00;54479.53;5070973;28;20023;-73
2023/09/29 02:28:14;;;;;;;18.98;7.32;;;;;;;-144.73;100.00;54432.31;5064099;28;20096;-74
2023/09/29 02:30:40;;;;;;;17.95;7.25;;;;;;;-144.73;100.00;54481.59;5052419;28;20024;-74
2023/09/29 02:33:06;;;;;;;22.05;8.13;;;;;;;-144.73;100.00;54481.59;5069363;28;20040;-74
2023/09/29 02:35:38;;;;;;;20.05;7.45;;;;;;;-144.73;100.00;54518.53;5052598;28;20024;-74
2023/09/29 02:38:03;;;;;;;19.90;8.77;;;;;;;-144.73;100.00;54465.16;5046317;28;20115;-74
2023/09/29 02:40:29;;;;;;;21.45;7.28;;;;;;;-144.73;100.00;54489.81;5070012;28;20047;-74
2023/09/29 02:42:54;;;;;;;13.95;7.20;;;;;;;-144.73;100.00;54473.38;5051867;28;20078;-74
2023/09/29 02:45:20;;;;;;;19.83;7.85;;;;;;;-144.73;100.00;54456.97;5047553;28;20024;-73
2023/09/29 02:47:47;;;;;;;12.70;7.43;;;;;;;-144.73;100.00;54473.38;5054312;28;20037;-73
2023/09/29 02:50:12;;;;;;;23.58;9.07;;;;;;;-144.73;100.00;54498.00;5055879;28;20060;-74
2023/09/29 02:52:40;;;;;;;18.63;9.18;;;;;;;-144.73;100.00;54506.22;5054711;28;20044;-73
2023/09/29 02:55:12;;;;;;;22.75;8.45;;;;;;;-144.73;100.00;54493.91;5055682;28;20099;-73
2023/09/29 02:57:37;;;;;;;13.90;8.10;;;;;;;-144.73;100.00;54452.84;5073032;28;20377;-73
2023/09/29 03:00:23;;;;;;;16.42;8.07;;;;;;;-144.73;100.00;54469.28;5050732;28;20024;-73
2023/09/29 03:02:53;;;;;;;22.70;8.48;;;;;;;-144.73;100.00;54493.91;5055231;28;20080;-74
2023/09/29 03:05:20;;;;;;;17.20;8.80;;;;;;;-144.73;100.00;54485.69;5073519;28;20019;-74
2023/09/29 03:07:46;;;;;;;20.15;8.43;;;;;;;-144.73;100.00;54485.69;5054682;28;20044;-73
2023/09/29 03:10:13;;;;;;;17.23;8.73;;;;;;;-144.73;100.00;54456.97;5055502;28;20025;-74
2023/09/29 03:12:42;;;;;;;22.35;8.98;;;;;;;-144.73;100.00;54463.13;5054662;28;20470;-74
2023/09/29 03:15:09;;;;;;;21.67;8.25;;;;;;;-144.73;100.00;54539.06;5054215;28;20117;-74
2023/09/29 03:17:36;;;;;;;15.52;8.35;;;;;;;-144.73;100.00;54477.47;5054407;28;20048;-75
2023/09/29 03:20:08;;;;;;;18.10;8.70;;;;;;;-144.73;100.00;54479.53;5055150;28;20028;-73
2023/09/29 03:22:37;;;;;;;18.83;8.70;;;;;;;-144.73;100.00;54506.22;5054546;28;20367;-74
2023/09/29 03:25:04;;;;;;;23.40;9.48;;;;;;;-144.73;100.00;54448.75;5050336;28;20021;-74
2023/09/29 03:27:29;;;;;;;20.58;9.00;;;;;;;-144.73;100.00;54489.81;5072178;28;20017;-75
2023/09/29 03:29:54;;;;;;;19.92;9.48;;;;;;;-144.73;100.00;54489.81;5054826;28;20021;-74
2023/09/29 03:32:20;;;;;;;17.33;8.60;;;;;;;-144.73;100.00;54506.22;5054920;28;20081;-73
2023/09/29 03:34:45;;;;;;;19.42;8.70;;;;;;;-144.73;100.00;54518.53;5054157;28;20029;-74
2023/09/29 03:37:10;;;;;;;26.45;9.95;;;;;;;-144.73;100.00;54477.47;5072769;28;20024;-74
2023/09/29 03:39:36;;;;;;;19.30;9.68;;;;;;;-144.73;100.00;54485.69;5054498;28;20107;-74
2023/09/29 03:42:01;;;;;;;20.67;10.07;;;;;;;-144.73;100.00;54489.81;5054366;28;20032;-73
2023/09/29 03:44:27;;;;;;;21.67;10.13;;;;;;;-144.73;100.00;54518.53;5054180;28;20021;-74
2023/09/29 03:46:54;;;;;;;21.15;10.02;;;;;;;-144.73;100.00;54465.16;5054660;28;20039;-74
2023/09/29 03:49:19;;;;;;;19.58;9.07;;;;;;;-144.73;100.00;54448.75;5053891;28;20468;-74
2023/09/29 03:51:45;;;;;;;20.73;9.63;;;;;;;-144.73;100.00;54485.69;5054642;28;20107;-74
2023/09/29 03:54:10;;;;;;;22.85;10.88;;;;;;;-144.73;100.00;54518.53;5053699;28;20033;-74
2023/09/29 03:56:35;;;;;;;21.90;11.35;;;;;;;-144.73;100.00;54510.31;5054649;28;20032;-74
2023/09/29 03:59:01;;;;;;;18.00;10.50;;;;;;;-144.73;100.00;54473.38;5054382;28;20025;-74
2023/09/29 04:01:27;;;;;;;21.30;10.60;;;;;;;-144.73;100.00;54498.00;5072379;28;20044;-74
2023/09/29 04:04:01;;;;;;;18.48;10.65;;;;;;;-144.73;100.00;54526.75;5053579;28;20092;-77
2023/09/29 04:06:26;;;;;;;26.75;11.77;;;;;;;-144.73;100.00;54514.44;5054803;28;20496;-74
2023/09/29 04:08:54;;;;;;;21.80;10.60;;;;;;;-144.73;100.00;54493.91;5053851;28;20037;-74
2023/09/29 04:11:19;;;;;;;19.35;10.48;;;;;;;-144.73;100.00;54502.13;5054104;28;20389;-74
2023/09/29 04:13:45;;;;;;;24.15;11.70;;;;;;;-144.73;100.00;54506.22;5053789;28;20033;-76
2023/09/29 04:16:10;;;;;;;27.58;10.63;;;;;;;-144.73;100.00;54459.00;5054258;28;20024;-74
2023/09/29 04:18:36;;;;;;;17.52;10.77;;;;;;;-144.73;100.00;54498.00;5054261;28;20031;-73
2023/09/29 04:21:01;;;;;;;17.90;10.52;;;;;;;-144.73;100.00;54465.16;5054169;28;20020;-74
2023/09/29 04:23:27;;;;;;;19.58;10.77;;;;;;;-144.73;100.00;54495.97;5050217;28;20108;-74
2023/09/29 04:25:53;;;;;;;19.77;10.48;;;;;;;-144.73;100.00;54479.53;5053542;28;20095;-75
2023/09/29 04:28:19;;;;;;;23.55;11.07;;;;;;;-144.73;100.00;54477.47;5071514;28;20055;-74
2023/09/29 04:30:45;;;;;;;26.17;11.30;;;;;;;-144.73;100.00;54500.06;5053852;28;20024;-74
2023/09/29 04:33:10;;;;;;;23.02;10.95;;;;;;;-144.73;100.00;54481.59;5053477;28;20119;-74
2023/09/29 04:35:36;;;;;;;21.17;11.15;;;;;;;-144.73;100.00;54479.53;5072318;28;20119;-74
2023/09/29 04:38:02;;;;;;;24.33;11.05;;;;;;;-144.73;100.00;54514.44;5053204;28;20024;-74
2023/09/29 04:40:28;;;;;;;20.92;11.68;;;;;;;-144.73;100.00;54477.47;5053520;28;20020;-74
2023/09/29 04:42:54;;;;;;;24.85;12.23;;;;;;;-144.73;100.00;54489.81;5070911;28;20032;-73
2023/09/29 04:45:19;;;;;;;22.67;11.48;;;;;;;-144.73;100.00;54506.22;5054061;28;20027;-74
2023/09/29 04:47:45;;;;;;;27.13;11.23;;;;;;;-144.73;100.00;54522.63;5071098;28;20063;-75
2023/09/29 04:50:11;;;;;;;18.40;9.40;;;;;;;-144.73;100.00;54473.38;5054243;28;20032;-74
2023/09/29 04:52:36;;;;;;;24.30;11.30;;;;;;;-144.73;100.00;54551.38;5050841;28;20502;-74
2023/09/29 04:55:02;;;;;;;21.98;11.10;;;;;;;-144.73;100.00;54604.75;5049709;28;20103;-74
2023/09/29 04:57:28;;;;;;;20.90;11.88;;;;;;;-144.73;100.00;54485.69;5071376;28;20036;-74
2023/09/29 04:59:53;;;;;;;22.30;10.27;;;;;;;-144.73;100.00;54485.69;5053124;28;20101;-74
2023/09/29 05:02:19;;;;;;;21.42;12.13;;;;;;;-144.73;100.00;54545.22;5051146;28;20070;-73
2023/09/29 05:04:44;;;;;;;20.70;11.60;;;;;;;-144.73;100.00;54498.00;5052937;28;20103;-74
2023/09/29 05:07:12;;;;;;;21.67;11.90;;;;;;;-144.73;100.00;54526.75;5053036;28;20445;-74
2023/09/29 05:09:37;;;;;;;20.52;12.05;;;;;;;-144.73;100.00;54539.06;5049393;28;20027;-73
2023/09/29 05:12:04;;;;;;;27.17;13.30;;;;;;;-144.73;100.00;54518.53;5053447;28;20024;-74
2023/09/29 05:14:29;;;;;;;22.30;13.13;;;;;;;-144.73;100.00;54514.44;5052878;28;20040;-73
2023/09/29 05:16:55;;;;;;;22.25;12.13;;;;;;;-144.73;100.00;54477.47;5053368;28;20058;-74
2023/09/29 05:19:20;;;;;;;21.00;10.63;;;;;;;-144.73;100.00;54483.66;5049241;28;20059;-74
2023/09/29 05:21:46;;;;;;;28.27;12.75;;;;;;;-144.73;100.00;54498.00;5071679;28;20021;-74
2023/09/29 05:24:11;;;;;;;22.17;11.50;;;;;;;-144.73;100.00;54510.31;5070012;28;20035;-73
2023/09/29 05:26:37;;;;;;;18.25;11.75;;;;;;;-144.73;100.00;54493.91;5053435;28;20028;-73
2023/09/29 05:29:02;;;;;;;17.33;11.90;;;;;;;-144.73;100.00;54502.13;5070743;28;20039;-73
2023/09/29 05:31:27;;;;;;;18.52;10.98;;;;;;;-144.73;100.00;54477.47;5053106;28;20025;-74
2023/09/29 05:33:54;;;;;;;26.38;11.43;;;;;;;-144.73;100.00;54502.13;5052186;28;20120;-73
2023/09/29 05:36:21;;;;;;;21.70;11.98;;;;;;;-144.73;100.00;54520.59;5052760;28;20039;-74
2023/09/29 05:38:46;;;;;;;15.75;11.32;;;;;;;-144.73;100.00;54477.47;5052425;28;20035;-73
2023/09/29 05:41:12;;;;;;;22.20;12.35;;;;;;;-144.73;100.00;54444.66;5052777;28;20076;-73
2023/09/29 05:43:37;;;;;;;23.45;11.27;;;;;;;-144.73;100.00;54502.13;5051960;28;20097;-74
2023/09/29 05:46:03;;;;;;;25.33;11.70;;;;;;;-144.73;100.00;54545.22;5052919;28;20115;-74
2023/09/29 05:48:28;;;;;;;18.63;11.73;;;;;;;-144.73;100.00;54510.31;5050216;28;20081;-74
2023/09/29 05:50:54;;;;;;;20.27;11.10;;;;;;;-144.73;100.00;54487.75;5070022;28;20023;-75
2023/09/29 05:53:19;;;;;;;20.13;12.23;;;;;;;-144.73;100.00;54502.13;5052515;28;20037;-76
2023/09/29 05:55:45;;;;;;;26.60;12.40;;;;;;;-144.73;100.00;54465.16;5053173;28;20454;-74
2023/09/29 05:58:10;;;;;;;19.08;11.18;;;;;;;-144.73;100.00;54522.63;5070475;28;20037;-74
2023/09/29 06:00:36;;;;;;;21.05;11.65;;;;;;;-144.73;100.00;54512.38;5071013;28;20024;-73
2023/09/29 06:03:01;;;;;;;20.05;11.73;;;;;;;-144.73;100.00;54485.69;5069062;28;20108;-74
2023/09/29 06:05:27;;;;;;;23.98;12.30;;;;;;;-144.73;100.00;54502.13;5070747;28;20104;-74
2023/09/29 06:07:53;;;;;;;30.33;12.35;;;;;;;-144.73;100.00;54498.00;5052379;28;20119;-74
2023/09/29 06:10:18;;;;;;;36.95;12.10;;;;;;;-144.73;100.00;54506.22;5052891;28;20024;-73
2023/09/29 06:12:43;;;;;;;18.95;12.32;;;;;;;-144.73;100.00;54530.84;5052213;28;20474;-73
2023/09/29 06:15:09;;;;;;;19.50;12.48;;;;;;;-144.73;100.00;54555.47;5052517;28;20436;-74
2023/09/29 06:17:35;;;;;;;23.25;11.80;;;;;;;-144.73;100.00;54485.69;5052263;28;20047;-73
2023/09/29 06:20:01;;;;;;;22.75;11.82;;;;;;;-144.73;100.00;54489.81;5070908;28;20378;-73
2023/09/29 06:22:26;;;;;;;20.65;12.40;;;;;;;-144.73;100.00;54518.53;5072459;28;20029;-73
2023/09/29 06:24:52;;;;;;;23.35;13.02;;;;;;;-144.73;100.00;54502.13;5057048;28;20384;-73
2023/09/29 06:27:17;;;;;;;25.73;12.48;;;;;;;-144.73;100.00;54491.84;5056466;28;20054;-73
2023/09/29 06:29:49;;;;;;;25.70;12.38;;;;;;;-144.73;100.00;54502.13;5055588;28;20025;-73
2023/09/29 06:32:15;;;;;;;24.85;11.98;;;;;;;-144.73;100.00;54473.38;5052717;28;20020;-73
2023/09/29 06:34:41;;;;;;;32.97;13.68;;;;;;;-144.73;100.00;54514.44;5052720;28;20028;-73
2023/09/29 06:37:09;;;;;;;38.72;13.05;;;;;;;-144.73;100.00;54485.69;5055957;28;20029;-72
2023/09/29 06:39:35;;;;;;;24.23;13.10;;;;;;;-144.73;100.00;54467.22;5047737;28;20104;-72
2023/09/29 06:42:01;;;;;;;32.45;12.55;;;;;;;-144.73;100.00;54498.00;5042111;28;20031;-74
2023/09/29 06:44:27;;;;;;;26.98;12.52;;;;;;;-144.73;100.00;54518.53;5047009;28;20036;-72
2023/09/29 06:46:52;;;;;;;22.13;12.60;;;;;;;-144.73;100.00;54510.31;5043113;28;20485;-73
2023/09/29 06:49:21;;;;;;;24.45;11.65;;;;;;;-144.73;100.00;54473.38;5048950;28;20033;-73
2023/09/29 06:51:48;;;;;;;32.33;13.68;;;;;;;-144.73;100.00;54526.75;5051301;28;20029;-74
2023/09/29 06:54:14;;;;;;;25.58;12.80;;;;;;;-144.73;100.00;54493.91;5044243;28;20059;-73
2023/09/29 06:56:40;;;;;;;27.58;11.38;;;;;;;-144.73;100.00;54530.84;5051907;28;20024;-74
2023/09/29 06:59:06;;;;;;;25.95;12.73;;;;;;;-144.73;100.00;54539.06;5045985;28;20039;-73
2023/09/29 07:01:32;;;;;;;35.35;13.13;;;;;;;-144.73;100.00;54510.31;5052340;28;20101;-73
2023/09/29 07:03:58;;;;;;;26.20;12.68;;;;;;;-144.73;100.00;54539.06;5055142;22;20135;-76
2023/09/29 07:06:24;;;;;;;29.55;12.48;;;;;;;-144.73;100.00;54485.69;5025474;28;20521;-76
2023/09/29 07:08:55;;;;;;;30.48;11.77;;;;;;;-144.73;100.00;54520.59;5031081;28;20040;-76
2023/09/29 07:11:21;;;;;;;35.25;12.68;;;;;;;-144.73;100.00;54502.13;5028313;28;21008;-78
2023/09/29 07:13:46;;;;;;;25.55;12.52;;;;;;;-144.73;100.00;54510.31;5030702;28;20033;-76
2023/09/29 07:16:13;;;;;;;25.65;12.90;;;;;;;-144.73;100.00;54514.44;5032673;28;20029;-76
2023/09/29 07:18:40;;;;;;;26.48;12.07;;;;;;;-144.73;100.00;54539.06;5023346;28;20029;-76
2023/09/29 07:21:05;;;;;;;31.85;12.25;;;;;;;-144.73;100.00;54514.44;5027408;28;20039;-76
2023/09/29 07:23:33;;;;;;;22.95;12.60;;;;;;;-144.73;100.00;54498.00;5032169;28;20033;-75
2023/09/29 07:25:59;;;;;;;32.00;12.27;;;;;;;-144.73;100.00;54502.13;5031904;28;20029;-76
2023/09/29 07:28:24;;;;;;;24.23;12.43;;;;;;;-144.73;100.00;54469.28;5041361;28;20051;-75
2023/09/29 07:30:50;;;;;;;27.33;12.23;;;;;;;-144.73;100.00;54518.53;5030040;28;20021;-75
2023/09/29 07:33:16;;;;;;;24.83;12.00;;;;;;;-144.73;100.00;54473.38;5024261;28;20037;-75
2023/09/29 07:35:44;;;;;;;26.30;10.75;;;;;;;-144.73;100.00;54510.31;5032626;28;20036;-75
2023/09/29 07:38:10;;;;;;;31.67;11.77;;;;;;;-144.73;100.00;54479.53;5024339;28;20037;-75
2023/09/29 07:40:36;;;;;;;40.88;11.07;;;;;;;-144.73;100.00;54493.91;5048966;28;20029;-76
2023/09/29 07:43:03;;;;;;;32.72;11.57;;;;;;;-144.73;100.00;54489.81;5028707;28;20032;-75
2023/09/29 07:45:29;;;;;;;26.20;10.82;;;;;;;-144.73;100.00;54481.59;5024205;28;20100;-75
2023/09/29 07:47:54;;;;;;;23.17;11.65;;;;;;;-144.73;100.00;54506.22;5030473;28;20112;-76
2023/09/29 07:50:20;;;;;;;23.30;11.80;;;;;;;-144.73;100.00;54539.06;5031712;28;20119;-75
2023/09/29 07:52:45;;;;;;;25.98;11.70;;;;;;;-144.73;100.00;54522.63;5041468;28;20105;-76
2023/09/29 07:55:18;;;;;;;24.52;11.00;;;;;;;-144.73;100.00;54498.00;5025467;28;20547;-76
2023/09/29 07:57:44;;;;;;;32.85;11.75;;;;;;;-144.73;100.00;54526.75;5024372;28;20021;-76
2023/09/29 08:00:12;;;;;;;31.73;11.45;;;;;;;-144.73;100.00;54539.06;5025680;28;20031;-76
2023/09/29 08:02:38;;;;;;;30.55;10.65;;;;;;;-144.73;100.00;54512.38;5018569;28;20269;-76
2023/09/29 08:05:07;;;;;;;21.92;10.85;;;;;;;-144.73;100.00;54473.38;5029918;28;20041;-75
2023/09/29 08:07:34;;;;;;;37.40;11.73;;;;;;;-144.73;100.00;54473.38;5014946;28;20028;-78
2023/09/29 08:09:59;;;;;;;33.53;10.80;;;;;;;-144.73;100.00;54489.81;5019656;28;20017;-76
2023/09/29 08:12:25;;;;;;;29.83;10.10;;;;;;;-144.73;100.00;54522.63;5023760;28;20025;-77
2023/09/29 08:14:51;;;;;;;27.70;10.68;;;;;;;-144.73;100.00;54502.13;5017371;28;20079;-76
2023/09/29 08:17:18;;;;;;;30.25;11.15;;;;;;;-144.73;100.00;54506.22;5016318;28;20096;-75
2023/09/29 08:19:44;;;;;;;38.88;11.05;;;;;;;-144.73;100.00;54465.16;5012536;28;20128;-76
2023/09/29 08:22:10;;;;;;;27.83;10.63;;;;;;;-144.73;100.00;54498.00;5038165;28;20108;-76
2023/09/29 08:24:36;;;;;;;27.88;10.52;;;;;;;-144.73;100.00;54477.47;5017593;28;20069;-75
2023/09/29 08:27:02;;;;;;;20.98;10.55;;;;;;;-144.73;100.00;54432.31;5042978;28;20025;-76
2023/09/29 08:29:28;;;;;;;26.30;11.60;;;;;;;-144.73;100.00;54514.44;5017085;28;20036;-77
2023/09/29 08:31:56;;;;;;;24.10;11.13;;;;;;;-144.73;100.00;54547.28;5023501;28;20035;-76
2023/09/29 08:34:25;;;;;;;32.38;11.18;;;;;;;-144.73;100.00;54477.47;5018035;28;20030;-77
2023/09/29 08:36:53;;;;;;;19.77;9.98;;;;;;;-144.73;100.00;54481.59;5023487;28;20032;-77
2023/09/29 08:39:20;;;;;;;25.30;9.75;;;;;;;-144.73;100.00;54522.63;5015204;28;20064;-75
2023/09/29 08:41:53;;;;;;;21.48;9.63;;;;;;;-144.73;100.00;54502.13;5013992;28;20032;-76
2023/09/29 08:44:21;;;;;;;27.17;10.30;;;;;;;-144.73;100.00;54483.66;5024003;28;20029;-76
2023/09/29 08:46:49;;;;;;;29.65;11.30;;;;;;;-144.73;100.00;54469.28;5028940;28;20021;-76
2023/09/29 08:49:18;;;;;;;20.63;9.45;;;;;;;-144.73;100.00;54500.06;5023575;28;20131;-76
2023/09/29 08:51:46;;;;;;;14.73;9.65;;;;;;;-144.73;100.00;54510.31;5031047;28;20052;-76
2023/09/29 08:54:13;;;;;;;16.02;9.52;;;;;;;-144.73;100.00;54510.31;5030831;28;20128;-76
2023/09/29 08:56:39;;;;;;;18.98;9.80;;;;;;;-144.73;100.00;54477.47;5030341;28;20725;-76
2023/09/29 08:59:05;;;;;;;13.85;9.02;;;;;;;-144.73;100.00;54493.91;5029465;28;20037;-76
2023/09/29 09:01:31;;;;;;;21.77;8.10;;;;;;;-144.73;100.00;54530.84;5028749;28;20028;-75
2023/09/29 09:03:57;;;;;;;15.98;8.52;;;;;;;-144.73;100.00;54465.16;5046495;28;20387;-75
2023/09/29 09:06:25;;;;;;;25.38;8.52;;;;;;;-144.73;100.00;54485.69;5034920;28;20036;-76
2023/09/29 09:08:52;;;;;;;21.83;8.45;;;;;;;-144.73;100.00;54512.38;5028967;28;20037;-75
2023/09/29 09:11:17;;;;;;;19.67;8.77;;;;;;;-144.73;100.00;54481.59;5030579;28;20045;-77
2023/09/29 09:13:52;;;;;;;15.82;7.53;;;;;;;-144.73;100.00;54489.81;5047190;28;20083;-75
2023/09/29 09:16:17;;;;;;;21.40;8.27;;;;;;;-144.73;100.00;54477.47;5040379;28;20025;-75
2023/09/29 09:18:43;;;;;;;27.45;8.75;;;;;;;-144.73;100.00;54479.53;5038941;28;20064;-75
2023/09/29 09:21:08;;;;;;;32.38;8.38;;;;;;;-144.73;100.00;54502.13;5067849;28;20541;-75
2023/09/29 09:23:37;;;;;;;24.55;7.63;;;;;;;-144.73;100.00;54493.91;5049829;28;20033;-76
2023/09/29 09:26:14;;;;;;;26.45;9.43;;;;;;;-144.73;100.00;54506.22;5048620;28;20017;-78
2023/09/29 09:28:40;;;;;;;17.58;9.00;;;;;;;-144.73;100.00;54506.22;5049130;28;20029;-77
2023/09/29 09:31:07;;;;;;;22.10;8.27;;;;;;;-144.73;100.00;54477.47;5050012;28;20028;-76
2023/09/29 09:33:32;;;;;;;18.77;7.28;;;;;;;-144.73;100.00;54510.31;5067003;28;20033;-76
2023/09/29 09:36:06;;;;;;;14.70;7.85;;;;;;;-144.73;100.00;54485.69;5046652;28;20020;-75
2023/09/29 09:38:32;;;;;;;27.30;8.60;;;;;;;-144.73;100.00;54485.69;5046925;28;20081;-76
2023/09/29 09:41:00;;;;;;;20.55;7.43;;;;;;;-144.73;100.00;54502.13;5052595;28;20027;-76
2023/09/29 09:43:26;;;;;;;17.80;6.90;;;;;;;-144.73;100.00;54510.31;5049505;28;20032;-75
2023/09/29 09:45:56;;;;;;;19.27;7.95;;;;;;;-144.73;100.00;54485.69;5046642;28;20020;-76
2023/09/29 09:48:24;;;;;;;25.33;8.13;;;;;;;-144.73;100.00;54483.66;5052749;28;20055;-75
2023/09/29 09:50:52;;;;;;;19.67;6.78;;;;;;;-144.73;100.00;54483.66;5049719;28;20048;-76
2023/09/29 09:53:20;;;;;;;17.30;7.13;;;;;;;-144.73;100.00;54506.22;5051271;28;20047;-76
2023/09/29 09:56:03;;;;;;;14.32;6.93;;;;;;;-144.73;100.00;54512.38;5051208;28;20021;-77
2023/09/29 09:58:31;;;;;;;22.27;7.30;;;;;;;-144.73;100.00;54489.81;5054851;28;20028;-76
2023/09/29 10:00:57;;;;;;;16.30;7.45;;;;;;;-144.73;100.00;54493.91;5049979;28;20056;-76
2023/09/29 10:03:24;;;;;;;16.77;7.07;;;;;;;-144.73;100.00;54489.81;5050553;28;20033;-76
2023/09/29 10:05:53;;;;;;;12.52;7.43;;;;;;;-144.73;100.00;54518.53;5054990;28;20034;-76
2023/09/29 10:08:30;;;;;;;17.88;7.97;;;;;;;-144.73;100.00;54498.00;5071003;28;20032;-75
2023/09/29 10:11:10;;;;;;;15.50;7.35;;;;;;;-144.73;100.00;54489.81;5056161;28;20033;-76
2023/09/29 10:13:37;;;;;;;14.63;7.47;;;;;;;-144.73;100.00;54506.22;5051590;28;20041;-76
2023/09/29 10:16:05;;;;;;;18.52;7.85;;;;;;;-144.73;100.00;54456.97;5055431;28;20021;-76
2023/09/29 10:18:33;;;;;;;18.08;7.15;;;;;;;-144.73;100.00;54502.13;5055515;28;20036;-76
2023/09/29 10:21:09;;;;;;;16.02;7.10;;;;;;;-144.73;100.00;54500.06;5056593;28;20043;-76
2023/09/29 10:23:50;;;;;;;15.27;6.97;;;;;;;-144.73;100.00;54514.44;5052744;28;20033;-75
2023/09/29 10:26:17;;;;;;;17.15;7.55;;;;;;;-144.73;100.00;54489.81;5055585;28;20055;-76
2023/09/29 10:28:45;;;;;;;12.43;6.63;;;;;;;-144.73;100.00;54489.81;5051934;28;20078;-76
2023/09/29 10:31:19;;;;;;;13.65;7.68;;;;;;;-144.73;100.00;54510.31;5053606;28;20012;-76
2023/09/29 10:33:53;;;;;;;17.20;6.53;;;;;;;-144.73;100.00;54477.47;5070353;28;20043;-75
2023/09/29 10:36:29;;;;;;;17.80;7.40;;;;;;;-144.73;100.00;54444.66;5053549;28;20050;-76
2023/09/29 10:39:03;;;;;;;16.02;5.93;;;;;;;-144.73;100.00;54469.28;5052082;28;20028;-76
2023/09/29 10:41:31;;;;;;;17.10;5.75;;;;;;;-144.73;100.00;54461.06;5065381;28;20039;-71
2023/09/29 10:43:59;;;;;;;9.68;5.20;;;;;;;-144.73;100.00;54448.75;5045038;28;20029;-71
2023/09/29 10:46:25;;;;;;;16.67;6.10;;;;;;;-144.73;100.00;54452.84;5051052;28;20008;-72
2023/09/29 10:48:55;;;;;;;12.27;5.43;;;;;;;-144.73;100.00;54428.22;5047686;28;20117;-72
2023/09/29 10:51:26;;;;;;;10.63;4.70;;;;;;;-144.73;100.00;54436.44;5044205;28;20082;-71
2023/09/29 10:53:52;;;;;;;12.63;4.97;;;;;;;-144.73;100.00;54469.28;5062874;28;20050;-71
2023/09/29 10:56:23;;;;;;;15.43;7.30;;;;;;;-144.73;100.00;54456.97;5061557;28;20120;-72